SAAC/COC METAR and TAF weather

Enter ICAO airport designator
Station Type Date Time Source
SAAC METAR 2019/11/27 12:25 UTC NOAA

SAAC 271225Z 18009KT 8000 FEW008 23/15 Q1014


Station Type Date Time Source
SAAC Decoded METAR 2019/11/27 12:25 UTC NOAA

Concordia Aerodrome, Argentina (SAAC) 31-18S 058-01W 38M
Nov 27, 2019 - 07:25 AM EST / 2019.11.27 1225 UTC
Wind: from the S (180 degrees) at 10 MPH (9 KT):0
Visibility: 4 mile(s):0
Sky conditions: mostly clear
Temperature: 73 F (23 C)
Dew Point: 59 F (15 C)
Relative Humidity: 60%
Pressure (altimeter): 29.94 in. Hg (1014 hPa)
ob: SAAC 271225Z 18009KT 8000 FEW008 23/15 Q1014
cycle: 12

Station Type Date Time Source
SAAC TAF UTC NOAA

Error!

Example: see airport list